Time;durP1;ratioP1;P1;durP2;ratioP2;P2;SDS_P1;SDS_P2;PMS_P1;PMS_P2;Temp;Humidity;BMP_temperature;BMP_pressure;BME280_temperature;BME280_humidity;BME280_pressure;Samples;Min_cycle;Max_cycle;Signal;HPM_P1;HPM_P2
2022/05/29 00:00:17;;;;;;;22.67;7.00;;;9.20;99.90;;;;;;4965877;28;20185;-53
2022/05/29 00:02:42;;;;;;;25.20;7.00;;;9.20;99.90;;;;;;4970184;28;20567;-52
2022/05/29 00:05:11;;;;;;;23.00;7.23;;;9.10;99.90;;;;;;4967527;28;20475;-52
2022/05/29 00:07:38;;;;;;;28.77;7.83;;;9.10;99.90;;;;;;4962947;28;20193;-52
2022/05/29 00:10:08;;;;;;;19.13;6.40;;;9.10;99.90;;;;;;4959735;28;20426;-51
2022/05/29 00:12:34;;;;;;;20.23;6.80;;;9.20;99.90;;;;;;4969251;28;20948;-50
2022/05/29 00:14:59;;;;;;;21.00;6.77;;;9.20;99.90;;;;;;4961162;28;20441;-52
2022/05/29 00:17:25;;;;;;;25.63;6.37;;;9.20;99.90;;;;;;4970692;28;20288;-52
2022/05/29 00:19:51;;;;;;;17.87;6.87;;;9.20;99.90;;;;;;4964002;28;20193;-53
2022/05/29 00:22:19;;;;;;;20.53;6.87;;;9.30;99.90;;;;;;4965664;28;20184;-52
2022/05/29 00:24:47;;;;;;;35.27;7.00;;;9.30;99.90;;;;;;4963151;28;20189;-52
2022/05/29 00:27:13;;;;;;;23.23;6.80;;;9.30;99.90;;;;;;4967736;28;20431;-52
2022/05/29 00:29:39;;;;;;;15.70;7.00;;;9.30;99.90;;;;;;4967582;28;20495;-51
2022/05/29 00:32:05;;;;;;;25.70;7.80;;;9.30;99.90;;;;;;4960343;28;20464;-51
2022/05/29 00:34:31;;;;;;;28.87;7.60;;;9.30;99.90;;;;;;4967020;28;20955;-52
2022/05/29 00:37:00;;;;;;;11.77;6.53;;;9.30;99.90;;;;;;4964616;28;20465;-52
2022/05/29 00:39:28;;;;;;;17.27;7.40;;;9.40;99.90;;;;;;4967627;28;20411;-52
2022/05/29 00:41:54;;;;;;;23.27;7.17;;;9.40;99.90;;;;;;4965113;28;20445;-52
2022/05/29 00:44:27;;;;;;;28.53;7.30;;;9.40;99.90;;;;;;4962666;28;20749;-51
2022/05/29 00:47:13;;;;;;;21.93;6.90;;;9.40;99.90;;;;;;4965427;28;20433;-49
2022/05/29 00:49:41;;;;;;;31.27;7.93;;;9.40;99.90;;;;;;4960794;28;20542;-52
2022/05/29 00:52:29;;;;;;;18.37;7.40;;;9.40;99.90;;;;;;4964312;28;20444;-52
2022/05/29 00:54:56;;;;;;;21.77;7.13;;;9.40;99.90;;;;;;4958916;28;20473;-51
2022/05/29 00:57:37;;;;;;;32.27;8.33;;;9.40;99.90;;;;;;4966638;28;21228;-51
2022/05/29 01:00:08;;;;;;;22.23;6.40;;;9.30;99.90;;;;;;4958978;28;20452;-51
2022/05/29 01:02:34;;;;;;;39.60;6.63;;;9.30;99.90;;;;;;4966167;28;20444;-51
2022/05/29 01:05:03;;;;;;;22.17;7.03;;;9.30;99.90;;;;;;4966265;28;20444;-51
2022/05/29 01:07:29;;;;;;;28.63;7.20;;;9.30;99.90;;;;;;4966837;28;20444;-51
2022/05/29 01:09:55;;;;;;;27.10;6.90;;;9.30;99.90;;;;;;4970322;28;20448;-52
2022/05/29 01:12:45;;;;;;;21.07;7.10;;;9.30;99.90;;;;;;4969226;28;20448;-52
2022/05/29 01:15:16;;;;;;;29.20;6.50;;;9.30;99.90;;;;;;4969532;28;20614;-50
2022/05/29 01:18:19;;;;;;;24.10;6.27;;;9.30;99.90;;;;;;4969658;28;20467;-51
2022/05/29 01:20:54;;;;;;;31.20;6.67;;;9.30;99.90;;;;;;4969368;28;20446;-51
2022/05/29 01:23:58;;;;;;;23.53;6.40;;;9.20;99.90;;;;;;4971838;28;20974;-51
2022/05/29 01:26:48;;;;;;;27.33;7.10;;;9.20;99.90;;;;;;4970012;28;21148;-51
2022/05/29 01:29:23;;;;;;;16.23;6.50;;;9.20;99.90;;;;;;4968239;28;21005;-51
2022/05/29 01:31:56;;;;;;;25.83;6.57;;;9.20;99.90;;;;;;4967171;28;20440;-54
2022/05/29 01:34:46;;;;;;;25.83;6.90;;;9.20;99.90;;;;;;4962677;28;20479;-52
2022/05/29 01:37:19;;;;;;;26.23;7.40;;;9.20;99.90;;;;;;4967752;28;20787;-51
2022/05/29 01:40:03;;;;;;;27.10;6.57;;;9.20;99.90;;;;;;4962504;28;20437;-50
2022/05/29 01:42:36;;;;;;;20.93;6.57;;;9.20;99.90;;;;;;4968941;28;20536;-50
2022/05/29 01:45:33;;;;;;;31.17;6.57;;;9.20;99.90;;;;;;4963461;28;20432;-51
2022/05/29 01:48:09;;;;;;;22.70;6.47;;;9.20;99.90;;;;;;4963797;28;20521;-51
2022/05/29 01:50:43;;;;;;;27.77;6.37;;;9.20;99.90;;;;;;4970968;28;20819;-51
2022/05/29 01:53:22;;;;;;;27.83;6.30;;;9.20;99.90;;;;;;4966690;28;20992;-52
2022/05/29 01:55:53;;;;;;;15.67;5.57;;;9.20;99.90;;;;;;4963324;28;20431;-51
2022/05/29 01:58:27;;;;;;;21.77;6.50;;;9.30;99.90;;;;;;4967260;28;20707;-52
2022/05/29 02:00:57;;;;;;;21.73;5.80;;;9.30;99.90;;;;;;4964571;28;20463;-51
2022/05/29 02:03:31;;;;;;;20.00;6.27;;;9.40;99.90;;;;;;4967366;28;20436;-51
2022/05/29 02:06:04;;;;;;;34.37;7.10;;;9.30;99.90;;;;;;4970963;28;21055;-51
2022/05/29 02:08:51;;;;;;;17.97;6.17;;;9.40;99.90;;;;;;4967355;28;20531;-53
2022/05/29 02:11:24;;;;;;;21.77;6.40;;;9.30;99.90;;;;;;4966058;28;20484;-52
2022/05/29 02:14:02;;;;;;;29.57;6.40;;;9.30;99.90;;;;;;4968968;28;20461;-51
2022/05/29 02:16:45;;;;;;;19.10;7.07;;;9.30;99.90;;;;;;4968476;28;20961;-53
2022/05/29 02:19:28;;;;;;;24.70;5.67;;;9.30;99.90;;;;;;4967215;28;20440;-51
2022/05/29 02:22:07;;;;;;;20.77;5.30;;;9.30;99.90;;;;;;4961163;28;20467;-51
2022/05/29 02:24:38;;;;;;;14.93;5.33;;;9.30;99.90;;;;;;4963739;28;20462;-51
2022/05/29 02:27:28;;;;;;;24.53;6.20;;;9.30;99.90;;;;;;4965958;28;20872;-51
2022/05/29 02:29:56;;;;;;;24.37;5.57;;;9.30;99.90;;;;;;4965177;28;20819;-51
2022/05/29 02:32:34;;;;;;;22.57;5.30;;;9.40;99.90;;;;;;4960146;28;20456;-50
2022/05/29 02:35:11;;;;;;;19.47;5.53;;;9.40;99.90;;;;;;4964538;28;20460;-50
2022/05/29 02:37:43;;;;;;;28.30;6.53;;;9.40;99.90;;;;;;4963540;28;21989;-51
2022/05/29 02:40:21;;;;;;;18.23;5.83;;;9.40;99.90;;;;;;4966796;28;21029;-50
2022/05/29 02:43:25;;;;;;;21.30;5.80;;;9.40;99.90;;;;;;4967136;28;20491;-52
2022/05/29 02:46:14;;;;;;;26.03;5.50;;;9.40;99.90;;;;;;4957526;28;20445;-51
2022/05/29 02:48:54;;;;;;;21.10;5.30;;;9.40;99.90;;;;;;4966804;28;20506;-55
2022/05/29 02:51:37;;;;;;;26.50;6.30;;;9.50;99.90;;;;;;4966211;28;20904;-51
2022/05/29 02:54:03;;;;;;;23.73;6.07;;;9.50;99.90;;;;;;4962351;28;20852;-51
2022/05/29 02:56:28;;;;;;;22.43;5.90;;;9.50;99.90;;;;;;4965875;28;20528;-51
2022/05/29 02:58:57;;;;;;;19.60;5.30;;;9.50;99.90;;;;;;4966017;28;20185;-51
2022/05/29 03:01:32;;;;;;;31.73;7.73;;;9.50;99.90;;;;;;4968770;28;20182;-50
2022/05/29 03:04:24;;;;;;;27.73;5.63;;;9.40;99.90;;;;;;4964455;28;20445;-51
2022/05/29 03:07:01;;;;;;;18.90;5.97;;;9.50;99.90;;;;;;4965841;28;20473;-50
2022/05/29 03:09:54;;;;;;;19.43;5.40;;;9.50;99.90;;;;;;4962416;28;20444;-51
2022/05/29 03:12:45;;;;;;;21.63;5.70;;;9.50;99.90;;;;;;4964466;28;20956;-51
2022/05/29 03:15:49;;;;;;;24.83;5.67;;;9.50;99.90;;;;;;4960831;28;20539;-51
2022/05/29 03:18:43;;;;;;;20.50;5.40;;;9.50;99.90;;;;;;4909882;29;20435;-50
2022/05/29 03:21:30;;;;;;;18.43;5.77;;;9.40;99.90;;;;;;4966292;28;20953;-51
2022/05/29 03:24:19;;;;;;;14.43;5.40;;;9.40;99.90;;;;;;4964413;28;20953;-50
2022/05/29 03:26:54;;;;;;;23.43;5.57;;;9.50;99.90;;;;;;4969958;28;20460;-60
2022/05/29 03:29:49;;;;;;;17.60;6.00;;;9.50;99.90;;;;;;4964040;28;20524;-51
2022/05/29 03:32:16;;;;;;;24.50;5.80;;;9.50;99.90;;;;;;4967832;28;20437;-50
2022/05/29 03:34:41;;;;;;;19.87;5.10;;;9.50;99.90;;;;;;4968078;28;20480;-51
2022/05/29 03:37:07;;;;;;;27.90;5.53;;;9.50;99.90;;;;;;4967161;28;20451;-50
2022/05/29 03:39:34;;;;;;;20.00;5.80;;;9.50;99.90;;;;;;4967452;28;20546;-50
2022/05/29 03:41:59;;;;;;;12.10;4.97;;;9.50;99.90;;;;;;4966116;28;20545;-51
2022/05/29 03:44:25;;;;;;;29.73;6.50;;;9.50;99.90;;;;;;4966256;28;20459;-50
2022/05/29 03:46:51;;;;;;;27.67;6.20;;;9.50;99.90;;;;;;4965776;28;20662;-50
2022/05/29 03:49:19;;;;;;;17.37;5.07;;;9.60;99.90;;;;;;4966903;28;20184;-49
2022/05/29 03:51:45;;;;;;;20.10;6.03;;;9.50;99.90;;;;;;4967188;28;20854;-50
2022/05/29 03:54:11;;;;;;;22.20;5.73;;;9.60;99.90;;;;;;4965137;28;20478;-50
2022/05/29 03:56:37;;;;;;;26.07;5.97;;;9.60;99.90;;;;;;4967352;28;20429;-51
2022/05/29 03:59:04;;;;;;;21.40;6.43;;;9.60;99.90;;;;;;4966204;28;20209;-51
2022/05/29 04:01:32;;;;;;;25.27;5.70;;;9.60;99.90;;;;;;4967533;28;20550;-52
2022/05/29 04:03:57;;;;;;;28.53;6.20;;;9.60;99.90;;;;;;4963819;28;20472;-50
2022/05/29 04:06:25;;;;;;;20.43;5.60;;;9.60;99.90;;;;;;4968629;28;20436;-51
2022/05/29 04:14:21;;;;;;;21.10;5.70;;;9.70;99.90;;;;;;4966028;28;20478;-51
2022/05/29 04:16:47;;;;;;;24.23;5.97;;;9.70;99.90;;;;;;4967323;28;21172;-50
2022/05/29 04:19:13;;;;;;;19.53;4.80;;;9.70;99.90;;;;;;4962269;28;20477;-50
2022/05/29 04:21:38;;;;;;;18.60;6.63;;;9.70;99.90;;;;;;4965017;28;20277;-50
2022/05/29 04:24:04;;;;;;;23.70;5.80;;;9.80;99.90;;;;;;4965255;28;20244;-50
2022/05/29 04:26:30;;;;;;;18.80;6.00;;;9.80;99.90;;;;;;4964354;28;20201;-50
2022/05/29 04:28:55;;;;;;;18.53;6.23;;;9.80;99.90;;;;;;4963645;28;20535;-50
2022/05/29 04:31:21;;;;;;;25.60;6.83;;;9.90;99.90;;;;;;4968126;28;20714;-46
2022/05/29 04:33:47;;;;;;;22.73;7.00;;;9.90;99.90;;;;;;4969897;28;20224;-46
2022/05/29 04:36:12;;;;;;;26.03;6.70;;;9.90;99.90;;;;;;4967658;28;20219;-45
2022/05/29 04:38:38;;;;;;;24.17;5.77;;;9.90;99.90;;;;;;4970029;28;20615;-46
2022/05/29 04:41:08;;;;;;;23.03;5.80;;;9.90;99.90;;;;;;4966170;28;20199;-46
2022/05/29 04:43:35;;;;;;;23.33;7.03;;;9.90;99.90;;;;;;4972311;28;20690;-46
2022/05/29 04:46:00;;;;;;;18.67;6.03;;;9.90;99.90;;;;;;4971991;28;20535;-46
2022/05/29 04:48:26;;;;;;;18.97;5.70;;;9.90;99.90;;;;;;4968731;28;20517;-46
2022/05/29 04:51:00;;;;;;;30.50;6.97;;;9.90;99.90;;;;;;4971708;28;20244;-46
2022/05/29 04:53:28;;;;;;;42.20;7.07;;;10.00;99.90;;;;;;4970692;28;20479;-46
2022/05/29 04:55:55;;;;;;;27.13;6.70;;;10.10;99.90;;;;;;4971686;28;20475;-46
2022/05/29 04:58:23;;;;;;;24.30;5.80;;;10.10;99.90;;;;;;4969373;28;20460;-46
2022/05/29 05:00:48;;;;;;;28.80;6.10;;;10.10;99.90;;;;;;4969747;28;20428;-46
2022/05/29 05:03:14;;;;;;;20.27;5.83;;;10.10;99.90;;;;;;4970896;28;20450;-46
2022/05/29 05:05:40;;;;;;;21.27;6.73;;;10.20;99.90;;;;;;4971933;28;20620;-46
2022/05/29 05:08:05;;;;;;;21.63;5.20;;;10.20;99.90;;;;;;4968642;28;20198;-47
2022/05/29 05:10:31;;;;;;;28.73;5.60;;;10.10;99.90;;;;;;4970272;28;20221;-46
2022/05/29 05:12:56;;;;;;;21.37;5.60;;;10.20;99.90;;;;;;4966273;28;20213;-46
2022/05/29 05:15:22;;;;;;;15.37;4.73;;;10.20;99.90;;;;;;4971514;28;20933;-46
2022/05/29 05:17:48;;;;;;;19.50;6.00;;;10.20;99.90;;;;;;4971959;28;20192;-46
2022/05/29 05:20:14;;;;;;;24.63;5.70;;;10.20;99.90;;;;;;4969486;28;20276;-46
2022/05/29 05:22:40;;;;;;;25.97;6.27;;;10.20;99.90;;;;;;4964986;28;20557;-47
2022/05/29 05:25:08;;;;;;;15.90;5.73;;;10.20;99.90;;;;;;4967966;28;20437;-46
2022/05/29 05:27:33;;;;;;;19.33;5.43;;;10.30;63.70;;;;;;4970052;28;20962;-46
2022/05/29 05:29:59;;;;;;;17.60;5.20;;;10.30;1.00;;;;;;4968571;28;20551;-46
2022/05/29 05:32:24;;;;;;;17.70;5.70;;;10.30;12.90;;;;;;4971393;28;20510;-47
2022/05/29 05:34:50;;;;;;;20.63;5.40;;;10.30;4.90;;;;;;4959384;28;20839;-47
2022/05/29 05:37:16;;;;;;;25.63;5.63;;;10.30;45.10;;;;;;4971219;28;20192;-46
2022/05/29 05:39:42;;;;;;;25.60;6.27;;;10.40;1.00;;;;;;4971257;28;20243;-47
2022/05/29 05:42:08;;;;;;;19.80;5.57;;;10.50;1.00;;;;;;4967990;28;20910;-47
2022/05/29 05:44:34;;;;;;;15.30;5.10;;;10.50;1.00;;;;;;4969742;28;20292;-46
2022/05/29 05:46:59;;;;;;;18.50;5.60;;;10.50;99.90;;;;;;4969664;28;20208;-46
2022/05/29 05:49:25;;;;;;;20.83;5.10;;;10.50;1.00;;;;;;4969007;28;20335;-46
2022/05/29 05:51:51;;;;;;;32.43;5.90;;;10.50;1.00;;;;;;4964353;28;20264;-46
2022/05/29 05:54:18;;;;;;;18.43;4.97;;;10.60;49.90;;;;;;4968067;28;20208;-46
2022/05/29 05:56:47;;;;;;;18.87;5.20;;;10.60;99.90;;;;;;4965332;28;20930;-46
2022/05/29 05:59:13;;;;;;;31.53;5.47;;;10.60;99.90;;;;;;4964903;28;20433;-46
2022/05/29 06:01:39;;;;;;;16.20;5.70;;;10.60;1.00;;;;;;4964301;28;20458;-46
2022/05/29 06:04:05;;;;;;;21.43;5.20;;;10.70;1.00;;;;;;4969270;28;20440;-46
2022/05/29 06:06:31;;;;;;;16.07;5.23;;;10.70;1.00;;;;;;4969182;28;20578;-46
2022/05/29 06:08:57;;;;;;;19.37;5.60;;;10.60;1.00;;;;;;4965742;28;20190;-46
2022/05/29 06:11:24;;;;;;;17.40;5.23;;;10.70;1.00;;;;;;4967045;28;20188;-46
2022/05/29 06:13:50;;;;;;;22.97;5.77;;;10.70;1.00;;;;;;4969024;28;20562;-47
2022/05/29 06:16:16;;;;;;;21.47;5.70;;;10.70;99.90;;;;;;4961370;28;21228;-46
2022/05/29 06:18:42;;;;;;;13.67;5.17;;;10.60;1.00;;;;;;4968763;28;20189;-46
2022/05/29 06:21:08;;;;;;;15.47;5.80;;;10.70;99.90;;;;;;4970205;28;20207;-47
2022/05/29 06:23:35;;;;;;;15.60;5.37;;;10.60;1.00;;;;;;4951623;28;20444;-47
2022/05/29 06:26:05;;;;;;;19.17;5.13;;;10.70;1.00;;;;;;4971088;28;20276;-47
2022/05/29 06:28:32;;;;;;;15.70;5.00;;;10.80;1.00;;;;;;4966079;28;20449;-47
2022/05/29 06:30:58;;;;;;;29.63;6.07;;;10.80;1.00;;;;;;4964910;28;20440;-47
2022/05/29 06:33:26;;;;;;;16.93;5.57;;;10.70;99.90;;;;;;4967445;28;20468;-48
2022/05/29 06:35:52;;;;;;;14.53;5.30;;;10.80;99.90;;;;;;4966938;28;20192;-47
2022/05/29 06:38:18;;;;;;;23.23;5.17;;;10.80;1.00;;;;;;4968455;28;20459;-47
2022/05/29 06:40:49;;;;;;;13.10;5.07;;;10.70;1.00;;;;;;4965187;28;20527;-47
2022/05/29 06:43:15;;;;;;;10.50;4.60;;;10.70;1.00;;;;;;4967612;28;20174;-47
2022/05/29 06:45:40;;;;;;;17.77;4.23;;;10.60;1.00;;;;;;4962766;28;20527;-47
2022/05/29 06:48:06;;;;;;;7.80;3.70;;;10.60;99.90;;;;;;4969568;28;20490;-47
2022/05/29 06:50:32;;;;;;;11.83;5.00;;;10.50;99.90;;;;;;4964144;28;20248;-47
2022/05/29 06:52:57;;;;;;;14.03;4.73;;;10.50;99.90;;;;;;4967867;28;20506;-47
2022/05/29 06:55:23;;;;;;;14.07;5.20;;;10.40;1.00;;;;;;4969383;28;20886;-47
2022/05/29 06:57:49;;;;;;;16.57;4.70;;;10.50;1.00;;;;;;4971722;28;20223;-47
2022/05/29 07:08:46;;;;;;;18.30;5.20;;;10.70;99.90;;;;;;4970305;28;20820;-47
2022/05/29 07:11:17;;;;;;;13.90;5.60;;;10.80;99.90;;;;;;4968344;28;20448;-47
2022/05/29 07:13:43;;;;;;;16.27;5.90;;;10.90;99.90;;;;;;4962080;28;20623;-47
2022/05/29 07:16:09;;;;;;;18.83;5.57;;;11.10;99.90;;;;;;4968310;28;20459;-47
2022/05/29 07:18:34;;;;;;;20.93;6.43;;;11.20;99.90;;;;;;4962238;28;20278;-47
2022/05/29 07:21:02;;;;;;;14.53;5.37;;;11.40;99.90;;;;;;4968536;28;20189;-47
2022/05/29 07:23:27;;;;;;;21.93;5.77;;;11.50;30.20;;;;;;4967234;28;20194;-47
2022/05/29 07:25:54;;;;;;;15.13;5.60;;;11.60;1.00;;;;;;4968047;28;20440;-47
2022/05/29 07:28:22;;;;;;;15.93;5.70;;;11.70;94.90;;;;;;4962784;28;20201;-46
2022/05/29 07:30:49;;;;;;;15.23;5.60;;;11.80;99.90;;;;;;4969299;28;20447;-47
2022/05/29 07:33:14;;;;;;;16.30;5.03;;;12.00;13.70;;;;;;4964967;28;20511;-47
2022/05/29 07:35:41;;;;;;;15.53;5.80;;;12.10;99.90;;;;;;4970395;28;20440;-47
2022/05/29 07:38:07;;;;;;;13.47;5.57;;;12.10;52.90;;;;;;4965321;28;20264;-46
2022/05/29 07:40:33;;;;;;;14.20;5.10;;;12.30;99.90;;;;;;4969248;28;20537;-46
2022/05/29 07:45:45;;;;;;;20.60;5.53;;;12.70;1.00;;;;;;4965131;28;20220;-46
2022/05/29 07:48:12;;;;;;;23.87;5.33;;;12.90;99.90;;;;;;4967528;28;20955;-47
2022/05/29 07:50:37;;;;;;;21.67;4.33;;;13.10;99.90;;;;;;4962944;28;20544;-47
2022/05/29 07:53:03;;;;;;;13.40;4.70;;;13.30;99.90;;;;;;4964887;28;20459;-47
2022/05/29 07:55:28;;;;;;;16.00;4.90;;;13.50;1.00;;;;;;4964395;28;20199;-47
2022/05/29 07:57:54;;;;;;;21.10;4.53;;;13.60;99.90;;;;;;4961872;28;20224;-47
2022/05/29 08:00:21;;;;;;;14.13;4.30;;;13.70;99.90;;;;;;4963714;28;20217;-46
2022/05/29 08:02:46;;;;;;;11.80;4.57;;;13.70;99.90;;;;;;4962645;28;20273;-46
2022/05/29 08:05:16;;;;;;;11.40;4.77;;;13.70;99.90;;;;;;4961464;28;20909;-46
2022/05/29 08:07:42;;;;;;;10.50;4.10;;;13.50;23.70;;;;;;4957883;28;20188;-46
2022/05/29 08:10:11;;;;;;;16.73;5.00;;;13.10;1.00;;;;;;4965785;28;20429;-47
2022/05/29 08:12:37;;;;;;;18.60;5.10;;;12.90;98.90;;;;;;4963879;28;20451;-47
2022/05/29 08:15:03;;;;;;;12.63;4.83;;;12.70;99.90;;;;;;4966964;28;20464;-48
2022/05/29 08:17:29;;;;;;;13.30;5.50;;;12.50;99.90;;;;;;4964854;28;20512;-47
2022/05/29 08:19:54;;;;;;;19.93;6.27;;;12.50;1.00;;;;;;4967210;28;20935;-48
2022/05/29 08:22:20;;;;;;;19.67;6.07;;;12.40;1.00;;;;;;4960512;28;20185;-47
2022/05/29 08:30:41;;;;;;;24.83;5.90;;;12.20;99.90;;;;;;4970510;28;20475;-47
2022/05/29 08:33:14;;;;;;;24.07;5.87;;;12.20;99.90;;;;;;4965595;28;20481;-46
2022/05/29 08:35:43;;;;;;;14.97;6.10;;;12.20;1.00;;;;;;4968745;28;20440;-47
2022/05/29 08:38:10;;;;;;;19.93;5.70;;;12.20;99.90;;;;;;4966087;28;20440;-48
2022/05/29 08:40:50;;;;;;;15.17;5.70;;;12.20;1.00;;;;;;4966167;28;20441;-46
2022/05/29 08:43:35;;;;;;;16.80;5.23;;;12.10;99.90;;;;;;4963816;28;20916;-47
2022/05/29 08:46:10;;;;;;;15.97;5.17;;;12.10;99.90;;;;;;4961947;28;20452;-47
2022/05/29 08:48:35;;;;;;;28.33;6.23;;;12.00;99.90;;;;;;4965138;28;20775;-47
2022/05/29 08:51:24;;;;;;;12.23;5.07;;;12.10;1.00;;;;;;4961385;28;20485;-47
2022/05/29 08:54:11;;;;;;;28.10;6.03;;;12.10;1.00;;;;;;4963270;28;20213;-47
2022/05/29 08:56:51;;;;;;;16.10;5.00;;;12.10;1.00;;;;;;4963832;28;20673;-47
2022/05/29 08:59:38;;;;;;;15.30;5.23;;;12.20;99.90;;;;;;4967924;28;20929;-48
2022/05/29 09:02:21;;;;;;;22.30;5.60;;;12.20;99.90;;;;;;4967474;28;20444;-48
2022/05/29 09:04:53;;;;;;;11.50;5.00;;;12.30;1.00;;;;;;4968888;28;20456;-46
2022/05/29 09:07:20;;;;;;;17.73;5.20;;;12.30;99.90;;;;;;4969008;28;20437;-47
2022/05/29 09:09:54;;;;;;;12.27;5.07;;;12.30;99.90;;;;;;4965923;28;20440;-47
2022/05/29 09:12:41;;;;;;;14.30;4.10;;;12.30;99.90;;;;;;4968090;28;20452;-47
2022/05/29 09:15:32;;;;;;;16.13;5.40;;;12.30;99.90;;;;;;4966838;28;20455;-48
2022/05/29 09:18:04;;;;;;;10.93;4.33;;;12.40;1.00;;;;;;4961370;28;20448;-47
2022/05/29 09:20:41;;;;;;;13.43;3.53;;;12.50;1.00;;;;;;4965386;28;20424;-46
2022/05/29 09:23:09;;;;;;;14.53;4.23;;;12.60;99.90;;;;;;4968334;28;20506;-47
2022/05/29 09:25:42;;;;;;;11.27;4.70;;;12.40;1.00;;;;;;4968210;28;20578;-47
2022/05/29 09:28:24;;;;;;;9.20;4.07;;;12.40;1.00;;;;;;4971270;28;20469;-48
2022/05/29 09:30:53;;;;;;;9.77;4.10;;;12.30;1.00;;;;;;4973164;28;20456;-47
2022/05/29 09:33:25;;;;;;;8.67;4.30;;;12.20;1.00;;;;;;4969412;28;20472;-47
2022/05/29 09:36:27;;;;;;;16.20;4.23;;;12.10;90.30;;;;;;4962969;28;20412;-47
2022/05/29 09:39:01;;;;;;;9.33;3.93;;;12.10;99.90;;;;;;4968541;28;20428;-48
2022/05/29 09:41:35;;;;;;;9.17;4.70;;;12.10;99.90;;;;;;4968879;28;20500;-51
2022/05/29 09:44:17;;;;;;;11.63;4.60;;;12.20;1.00;;;;;;4969926;28;20453;-47
2022/05/29 09:46:51;;;;;;;9.73;4.13;;;12.30;1.00;;;;;;4968448;28;20940;-46
2022/05/29 09:49:41;;;;;;;10.87;3.90;;;12.50;1.00;;;;;;4968398;28;20440;-47
2022/05/29 09:52:20;;;;;;;11.13;4.70;;;12.60;99.90;;;;;;4972167;28;20531;-47
2022/05/29 09:54:53;;;;;;;11.07;4.40;;;12.60;1.00;;;;;;4963057;28;20468;-47
2022/05/29 09:57:21;;;;;;;11.10;4.53;;;12.60;1.00;;;;;;4968226;28;20433;-47
2022/05/29 09:59:50;;;;;;;11.90;4.43;;;12.70;1.00;;;;;;4971800;28;20430;-46
2022/05/29 10:02:27;;;;;;;12.20;4.20;;;12.70;99.90;;;;;;4965854;28;20452;-47
2022/05/29 10:04:56;;;;;;;12.77;3.73;;;12.60;99.90;;;;;;4962690;28;20417;-46
2022/05/29 10:07:44;;;;;;;9.23;3.50;;;12.40;99.90;;;;;;4965449;28;20955;-48
2022/05/29 10:10:29;;;;;;;9.90;3.97;;;12.50;99.90;;;;;;4967755;28;20827;-47
2022/05/29 10:12:57;;;;;;;7.07;3.37;;;12.40;99.90;;;;;;4964382;28;20953;-47
2022/05/29 10:15:25;;;;;;;10.07;3.90;;;12.50;99.90;;;;;;4968811;28;20463;-46
2022/05/29 10:17:56;;;;;;;14.50;4.27;;;12.60;99.90;;;;;;4963185;28;20924;-47
2022/05/29 10:20:30;;;;;;;18.57;4.43;;;12.70;99.90;;;;;;4963519;28;20440;-47
2022/05/29 10:22:57;;;;;;;7.80;3.97;;;12.80;99.90;;;;;;4966643;28;20447;-47
2022/05/29 10:25:29;;;;;;;9.00;4.07;;;12.90;99.90;;;;;;4960775;28;20535;-46
2022/05/29 10:28:08;;;;;;;12.93;4.07;;;13.00;99.90;;;;;;4961660;28;20449;-47
2022/05/29 10:30:43;;;;;;;10.40;3.80;;;13.10;99.90;;;;;;4964589;28;20467;-47
2022/05/29 10:33:19;;;;;;;9.73;3.87;;;13.20;28.10;;;;;;4963334;28;20476;-46
2022/05/29 10:35:46;;;;;;;7.53;3.30;;;13.30;1.00;;;;;;4965622;28;20448;-48
2022/05/29 10:38:24;;;;;;;9.77;3.90;;;13.20;1.00;;;;;;4966765;28;20464;-46
2022/05/29 10:40:53;;;;;;;10.10;3.67;;;13.30;1.00;;;;;;4967885;28;20864;-47
2022/05/29 10:43:37;;;;;;;11.70;3.63;;;13.30;1.00;;;;;;4964794;28;20458;-46
2022/05/29 10:46:11;;;;;;;8.17;3.43;;;13.20;1.00;;;;;;4962695;28;21467;-47
2022/05/29 10:48:49;;;;;;;9.40;3.73;;;13.20;2.30;;;;;;4965905;28;20445;-46
2022/05/29 10:51:48;;;;;;;8.93;3.27;;;13.20;47.90;;;;;;4969779;28;20487;-46
2022/05/29 10:54:25;;;;;;;12.33;3.53;;;13.10;1.00;;;;;;4967723;28;21005;-46
2022/05/29 10:57:25;;;;;;;9.60;3.70;;;13.00;1.00;;;;;;4967885;28;20444;-47
2022/05/29 11:00:02;;;;;;;9.10;3.13;;;13.00;1.00;;;;;;4968979;28;20441;-46
2022/05/29 11:05:40;;;;;;;12.50;3.30;;;12.80;16.90;;;;;;4964369;28;20435;-46
2022/05/29 11:08:18;;;;;;;14.70;3.30;;;12.90;92.30;;;;;;4959947;28;20435;-46
2022/05/29 11:11:09;;;;;;;10.00;3.27;;;12.90;97.30;;;;;;4966043;28;20451;-47
2022/05/29 11:13:56;;;;;;;9.87;4.17;;;13.10;99.90;;;;;;4963155;28;20535;-46
2022/05/29 11:16:25;;;;;;;15.70;4.20;;;13.10;99.90;;;;;;4969593;28;20440;-47
2022/05/29 11:19:28;;;;;;;8.87;3.27;;;13.20;99.90;;;;;;4962455;28;20474;-47
2022/05/29 11:22:22;;;;;;;13.50;3.60;;;13.30;99.80;;;;;;4966789;28;20440;-45
2022/05/29 11:25:11;;;;;;;11.00;3.70;;;13.50;35.70;;;;;;4965416;28;20452;-47
2022/05/29 11:28:05;;;;;;;11.40;3.73;;;13.30;1.00;;;;;;4964891;28;21005;-47
2022/05/29 11:30:46;;;;;;;13.80;3.80;;;13.40;1.00;;;;;;4962267;28;20436;-47
2022/05/29 11:33:20;;;;;;;12.60;4.00;;;13.30;1.00;;;;;;4966940;28;20804;-47
2022/05/29 11:35:56;;;;;;;9.83;3.73;;;13.30;1.00;;;;;;4964844;28;20448;-47
2022/05/29 11:38:52;;;;;;;11.13;3.53;;;13.50;1.00;;;;;;4964040;28;20440;-46
2022/05/29 11:41:45;;;;;;;5.63;3.00;;;13.50;1.00;;;;;;4961175;28;20496;-48
2022/05/29 11:44:19;;;;;;;11.13;3.30;;;13.40;1.00;;;;;;4959541;28;20460;-46
2022/05/29 11:52:44;;;;;;;9.13;3.30;;;13.20;1.00;;;;;;4966235;28;20458;-46
2022/05/29 11:55:20;;;;;;;7.67;3.20;;;13.30;1.00;;;;;;4964996;28;20507;-46
2022/05/29 11:58:14;;;;;;;10.37;4.33;;;13.20;1.00;;;;;;4964286;28;20436;-47
2022/05/29 12:01:02;;;;;;;6.07;3.00;;;13.10;1.00;;;;;;4961436;28;20453;-47
2022/05/29 12:03:54;;;;;;;6.67;2.90;;;13.20;1.00;;;;;;4965406;28;20481;-50
2022/05/29 12:06:39;;;;;;;11.70;3.80;;;13.10;1.00;;;;;;4962514;28;20480;-50
2022/05/29 12:09:44;;;;;;;8.07;3.33;;;13.30;1.00;;;;;;4968823;28;20451;-50
2022/05/29 12:12:16;;;;;;;12.83;3.30;;;13.50;1.00;;;;;;4924302;29;20454;-50
2022/05/29 12:14:50;;;;;;;16.70;3.40;;;13.50;1.00;;;;;;4957574;28;20472;-49
2022/05/29 12:17:20;;;;;;;12.83;3.43;;;13.60;1.00;;;;;;4965009;28;20453;-50
2022/05/29 12:19:55;;;;;;;10.57;3.37;;;13.70;1.00;;;;;;4961841;28;20437;-49
2022/05/29 12:22:28;;;;;;;9.20;2.73;;;13.80;1.00;;;;;;4963311;28;20538;-49
2022/05/29 12:24:57;;;;;;;11.63;3.33;;;13.80;1.00;;;;;;4968841;28;20444;-48
2022/05/29 12:27:26;;;;;;;8.33;3.07;;;13.90;1.00;;;;;;4969052;28;20462;-49
2022/05/29 12:29:59;;;;;;;16.53;3.70;;;13.80;1.00;;;;;;4975812;28;20475;-49
2022/05/29 12:32:28;;;;;;;5.27;2.20;;;13.90;1.00;;;;;;4964671;28;20522;-48
2022/05/29 12:34:59;;;;;;;10.03;2.83;;;13.80;1.00;;;;;;4965960;28;20480;-49
2022/05/29 12:37:35;;;;;;;9.20;3.20;;;13.40;1.00;;;;;;4965033;28;20938;-50
2022/05/29 12:40:19;;;;;;;12.13;3.00;;;13.20;1.00;;;;;;4963416;28;20452;-50
2022/05/29 12:43:22;;;;;;;18.70;4.93;;;13.00;1.00;;;;;;4961020;28;20464;-50
2022/05/29 12:46:15;;;;;;;5.33;2.97;;;13.00;1.00;;;;;;4958643;28;20561;-49
2022/05/29 12:48:40;;;;;;;6.67;3.10;;;13.00;1.00;;;;;;4959992;28;20457;-48
2022/05/29 12:51:11;;;;;;;11.93;3.90;;;12.90;1.00;;;;;;4964790;28;20492;-49
2022/05/29 12:54:16;;;;;;;7.90;3.30;;;12.90;1.00;;;;;;4964221;28;20251;-49
2022/05/29 12:57:21;;;;;;;9.60;3.53;;;12.80;1.00;;;;;;4961940;28;20480;-49
2022/05/29 13:00:17;;;;;;;12.93;3.20;;;12.90;1.00;;;;;;4965521;28;20813;-49
2022/05/29 13:02:50;;;;;;;12.03;3.07;;;13.00;1.00;;;;;;4970878;28;20475;-49
2022/05/29 13:05:57;;;;;;;9.17;2.80;;;13.10;1.00;;;;;;4969356;28;20479;-49
2022/05/29 13:08:51;;;;;;;9.73;2.67;;;13.20;1.00;;;;;;4970140;28;20456;-49
2022/05/29 13:11:20;;;;;;;5.80;2.57;;;13.30;1.00;;;;;;4962739;28;20567;-49
2022/05/29 13:13:49;;;;;;;10.17;2.63;;;13.40;1.00;;;;;;4971778;28;20478;-49
2022/05/29 13:16:19;;;;;;;7.33;2.50;;;13.40;1.00;;;;;;4969113;28;20929;-49
2022/05/29 13:19:13;;;;;;;5.63;2.50;;;13.50;1.00;;;;;;4972478;28;20440;-49
2022/05/29 13:21:57;;;;;;;6.63;2.17;;;13.70;1.00;;;;;;4967106;28;20467;-48
2022/05/29 13:24:25;;;;;;;5.00;2.57;;;13.60;1.00;;;;;;4968407;28;20490;-49
2022/05/29 13:27:12;;;;;;;5.50;2.60;;;13.70;1.00;;;;;;4968943;28;20451;-49
2022/05/29 13:29:43;;;;;;;7.20;2.40;;;13.80;1.00;;;;;;4963118;28;20431;-49
2022/05/29 13:32:15;;;;;;;7.17;2.50;;;13.90;1.00;;;;;;4967177;28;20441;-49
2022/05/29 13:34:44;;;;;;;6.57;2.40;;;13.80;1.00;;;;;;4965860;28;20467;-49
2022/05/29 13:37:31;;;;;;;8.27;2.60;;;13.90;1.00;;;;;;4965594;28;20437;-47
2022/05/29 13:40:04;;;;;;;5.97;2.90;;;13.90;1.00;;;;;;4966807;28;20443;-48
2022/05/29 13:42:51;;;;;;;6.50;2.50;;;13.90;1.00;;;;;;4969358;28;20654;-48
2022/05/29 13:45:19;;;;;;;8.20;2.50;;;14.00;1.00;;;;;;4968821;28;20432;-50
2022/05/29 13:48:10;;;;;;;5.77;2.50;;;14.00;1.00;;;;;;4967685;28;20499;-49
2022/05/29 13:50:39;;;;;;;12.97;2.80;;;14.00;1.00;;;;;;4966573;28;20484;-48